Time;durP1;ratioP1;P1;durP2;ratioP2;P2;SDS_P1;SDS_P2;PMS_P1;PMS_P2;Temp;Humidity;BMP_temperature;BMP_pressure;BME280_temperature;BME280_humidity;BME280_pressure;Samples;Min_cycle;Max_cycle;Signal;HPM_P1;HPM_P2
2021/11/28 00:01:42;;;;;;;4.50;4.20;;;;;;;;;;4982186;28;24508;-60
2021/11/28 00:04:08;;;;;;;3.97;3.67;;;;;;;;;;4980975;28;24475;-60
2021/11/28 00:06:35;;;;;;;4.20;3.90;;;;;;;;;;4980266;28;24780;-60
2021/11/28 00:09:29;;;;;;;4.30;4.00;;;;;;;;;;4983564;28;24443;-60
2021/11/28 00:12:12;;;;;;;4.30;4.00;;;;;;;;;;4983048;28;24847;-60
2021/11/28 00:14:38;;;;;;;4.45;4.15;;;;;;;;;;4984641;28;24467;-60
2021/11/28 00:17:04;;;;;;;4.43;4.13;;;;;;;;;;4987185;28;24405;-61
2021/11/28 00:19:29;;;;;;;5.30;4.90;;;;;;;;;;4985477;28;24479;-60
2021/11/28 00:21:54;;;;;;;5.00;4.60;;;;;;;;;;4991882;28;25004;-60
2021/11/28 00:24:19;;;;;;;5.00;4.60;;;;;;;;;;4994210;28;24437;-60
2021/11/28 00:26:45;;;;;;;4.88;4.47;;;;;;;;;;4988128;28;24815;-60
2021/11/28 00:29:10;;;;;;;5.00;4.60;;;;;;;;;;4988911;28;24421;-60
2021/11/28 00:31:36;;;;;;;4.70;4.40;;;;;;;;;;4984490;28;24540;-61
2021/11/28 00:34:01;;;;;;;5.00;4.60;;;;;;;;;;4988457;28;24428;-60
2021/11/28 00:36:26;;;;;;;5.03;4.70;;;;;;;;;;4982451;28;25478;-60
2021/11/28 00:38:51;;;;;;;5.17;4.77;;;;;;;;;;4985284;28;24416;-60
2021/11/28 00:41:17;;;;;;;5.30;4.90;;;;;;;;;;4986491;28;24519;-60
2021/11/28 00:43:42;;;;;;;5.60;5.20;;;;;;;;;;4985203;28;25071;-60
2021/11/28 00:46:07;;;;;;;5.53;5.13;;;;;;;;;;4983366;28;24532;-61
2021/11/28 00:48:32;;;;;;;6.50;5.90;;;;;;;;;;4986331;28;24455;-61
2021/11/28 00:51:22;;;;;;;6.30;5.80;;;;;;;;;;4996156;28;24429;-60
2021/11/28 00:53:49;;;;;;;7.80;7.20;;;;;;;;;;4996569;28;24413;-61
2021/11/28 00:56:14;;;;;;;8.70;8.00;;;;;;;;;;4986987;28;24536;-61
2021/11/28 00:58:39;;;;;;;9.52;8.73;;;;;;;;;;4986971;28;24550;-60
2021/11/28 01:01:05;;;;;;;9.27;8.50;;;;;;;;;;4991232;28;24557;-61
2021/11/28 01:03:30;;;;;;;10.27;9.37;;;;;;;;;;4984901;28;24417;-61
2021/11/28 01:05:55;;;;;;;8.80;8.00;;;;;;;;;;4985529;28;24815;-61
2021/11/28 01:08:21;;;;;;;9.50;8.60;;;;;;;;;;4984913;28;24413;-60
2021/11/28 01:10:47;;;;;;;7.70;7.10;;;;;;;;;;4987577;28;24421;-61
2021/11/28 01:13:13;;;;;;;8.20;7.40;;;;;;;;;;4986727;28;24954;-60
2021/11/28 01:15:38;;;;;;;7.18;6.57;;;;;;;;;;4982995;28;24913;-61
2021/11/28 01:18:03;;;;;;;6.50;6.00;;;;;;;;;;4986207;28;24966;-61
2021/11/28 01:20:29;;;;;;;6.30;5.80;;;;;;;;;;4988805;28;24790;-61
2021/11/28 01:22:54;;;;;;;6.40;5.90;;;;;;;;;;4985445;28;24951;-61
2021/11/28 01:25:19;;;;;;;6.20;5.70;;;;;;;;;;4991535;28;24980;-61
2021/11/28 01:27:45;;;;;;;6.75;6.20;;;;;;;;;;4984311;28;24417;-61
2021/11/28 01:30:10;;;;;;;6.50;6.00;;;;;;;;;;4984420;28;24428;-61
2021/11/28 01:32:36;;;;;;;6.40;5.90;;;;;;;;;;4982228;28;24444;-61
2021/11/28 01:35:02;;;;;;;6.20;5.70;;;;;;;;;;4986692;28;24788;-61
2021/11/28 01:37:27;;;;;;;6.10;5.60;;;;;;;;;;4984345;28;24508;-61
2021/11/28 01:39:52;;;;;;;6.30;5.90;;;;;;;;;;4999900;28;24500;-60
2021/11/28 01:42:36;;;;;;;7.20;6.60;;;;;;;;;;4984502;28;24417;-59
2021/11/28 01:45:03;;;;;;;6.60;6.10;;;;;;;;;;4984100;28;24428;-60
2021/11/28 01:47:28;;;;;;;7.40;6.80;;;;;;;;;;4994562;28;24417;-61
2021/11/28 01:49:53;;;;;;;6.90;6.40;;;;;;;;;;4984103;28;24415;-61
2021/11/28 01:52:20;;;;;;;7.20;6.60;;;;;;;;;;4983090;28;24583;-61
2021/11/28 01:54:45;;;;;;;7.30;6.70;;;;;;;;;;4982032;28;25026;-61
2021/11/28 01:57:10;;;;;;;7.03;6.43;;;;;;;;;;4982944;28;24523;-61
2021/11/28 01:59:35;;;;;;;6.60;6.10;;;;;;;;;;4984709;28;24405;-61
2021/11/28 02:02:01;;;;;;;6.93;6.32;;;;;;;;;;4985106;28;24509;-61
2021/11/28 02:04:26;;;;;;;7.27;6.60;;;;;;;;;;4984707;28;24811;-61
2021/11/28 02:06:51;;;;;;;7.15;6.55;;;;;;;;;;4984610;28;24409;-61
2021/11/28 02:09:17;;;;;;;7.37;6.77;;;;;;;;;;4988972;28;24453;-61
2021/11/28 02:11:43;;;;;;;7.07;6.47;;;;;;;;;;4984374;28;24502;-61
2021/11/28 02:14:08;;;;;;;7.40;6.80;;;;;;;;;;4988941;28;24706;-61
2021/11/28 02:16:34;;;;;;;7.40;6.80;;;;;;;;;;4982644;28;24488;-61
2021/11/28 02:19:00;;;;;;;7.60;7.00;;;;;;;;;;4984605;28;24413;-61
2021/11/28 02:21:25;;;;;;;7.47;6.88;;;;;;;;;;4983355;28;24424;-61
2021/11/28 02:23:50;;;;;;;7.50;6.90;;;;;;;;;;4982271;28;24973;-60
2021/11/28 02:26:15;;;;;;;7.60;7.00;;;;;;;;;;4983902;28;24416;-60
2021/11/28 02:28:41;;;;;;;7.63;7.03;;;;;;;;;;4985287;28;25005;-61
2021/11/28 02:31:07;;;;;;;7.65;7.05;;;;;;;;;;4982684;28;24468;-61
2021/11/28 02:33:32;;;;;;;8.20;7.53;;;;;;;;;;4982697;28;24436;-60
2021/11/28 02:35:58;;;;;;;8.70;7.90;;;;;;;;;;4983170;28;24409;-61
2021/11/28 02:38:23;;;;;;;8.57;7.87;;;;;;;;;;4986087;28;24463;-60
2021/11/28 02:40:48;;;;;;;8.40;7.70;;;;;;;;;;4982760;28;24483;-60
2021/11/28 02:43:14;;;;;;;7.73;7.13;;;;;;;;;;4983084;28;24989;-61
2021/11/28 02:45:39;;;;;;;7.90;7.20;;;;;;;;;;4980181;28;24512;-59
2021/11/28 02:48:07;;;;;;;7.67;7.07;;;;;;;;;;4988353;28;24424;-59
2021/11/28 02:50:32;;;;;;;8.13;7.43;;;;;;;;;;4991415;28;24475;-59
2021/11/28 02:52:59;;;;;;;8.10;7.40;;;;;;;;;;4980165;28;24421;-59
2021/11/28 02:55:29;;;;;;;8.10;7.40;;;;;;;;;;4983315;28;24439;-59
2021/11/28 02:57:55;;;;;;;7.87;7.27;;;;;;;;;;4987433;28;24454;-59
2021/11/28 03:00:22;;;;;;;7.40;6.80;;;;;;;;;;4984266;28;24412;-59
2021/11/28 03:02:47;;;;;;;7.63;7.03;;;;;;;;;;4986564;28;24903;-59
2021/11/28 03:05:12;;;;;;;8.00;7.30;;;;;;;;;;4980387;28;24441;-59
2021/11/28 03:07:39;;;;;;;7.55;6.95;;;;;;;;;;4990322;28;24416;-58
2021/11/28 03:10:05;;;;;;;8.07;7.38;;;;;;;;;;4984110;28;24843;-59
2021/11/28 03:12:30;;;;;;;7.70;7.10;;;;;;;;;;4980290;28;24941;-59
2021/11/28 03:14:55;;;;;;;7.70;7.00;;;;;;;;;;4985452;28;24488;-59
2021/11/28 03:17:20;;;;;;;8.33;7.53;;;;;;;;;;4986618;28;24942;-59
2021/11/28 03:19:47;;;;;;;7.90;7.30;;;;;;;;;;4983872;28;24507;-59
2021/11/28 03:22:13;;;;;;;8.00;7.30;;;;;;;;;;4988441;28;24409;-59
2021/11/28 03:24:38;;;;;;;8.50;7.80;;;;;;;;;;4981929;28;24416;-59
2021/11/28 03:27:03;;;;;;;7.88;7.18;;;;;;;;;;4984557;28;25522;-59
2021/11/28 03:29:28;;;;;;;8.30;7.60;;;;;;;;;;4979463;28;25311;-59
2021/11/28 03:31:54;;;;;;;7.97;7.30;;;;;;;;;;4986940;28;24524;-59
2021/11/28 03:34:20;;;;;;;8.45;7.65;;;;;;;;;;4985228;28;24803;-59
2021/11/28 03:36:50;;;;;;;7.67;6.97;;;;;;;;;;4982911;28;24420;-59
2021/11/28 03:39:17;;;;;;;8.15;7.45;;;;;;;;;;4984538;28;24950;-59
2021/11/28 03:41:44;;;;;;;7.45;6.85;;;;;;;;;;4980913;28;24433;-59
2021/11/28 03:44:10;;;;;;;7.50;6.80;;;;;;;;;;4979803;28;24597;-59
2021/11/28 03:46:35;;;;;;;7.53;6.93;;;;;;;;;;4985462;28;24504;-59
2021/11/28 03:49:02;;;;;;;6.90;6.30;;;;;;;;;;4983396;28;25137;-59
2021/11/28 03:51:27;;;;;;;6.70;6.10;;;;;;;;;;4981713;28;25034;-59
2021/11/28 03:53:53;;;;;;;7.07;6.57;;;;;;;;;;4982007;28;24428;-59
2021/11/28 03:56:18;;;;;;;6.40;5.90;;;;;;;;;;4988142;28;24472;-59
2021/11/28 03:58:43;;;;;;;6.80;6.20;;;;;;;;;;4986361;28;24512;-59
2021/11/28 04:01:09;;;;;;;6.72;6.20;;;;;;;;;;4988457;28;24497;-59
2021/11/28 04:03:35;;;;;;;6.57;5.97;;;;;;;;;;4977689;28;25005;-59
2021/11/28 04:06:00;;;;;;;6.80;6.30;;;;;;;;;;4984096;28;24508;-59
2021/11/28 04:08:27;;;;;;;6.97;6.38;;;;;;;;;;4977976;28;24550;-59
2021/11/28 04:10:53;;;;;;;7.10;6.40;;;;;;;;;;4979367;28;24428;-59
2021/11/28 04:13:18;;;;;;;6.80;6.30;;;;;;;;;;4979803;28;24440;-60
2021/11/28 04:15:43;;;;;;;7.30;6.70;;;;;;;;;;4983241;28;24848;-60
2021/11/28 04:18:08;;;;;;;6.10;5.70;;;;;;;;;;4984063;28;24911;-58
2021/11/28 04:20:34;;;;;;;6.53;6.03;;;;;;;;;;4985260;28;24409;-59
2021/11/28 04:22:59;;;;;;;6.70;6.20;;;;;;;;;;4984151;28;24417;-59
2021/11/28 04:25:24;;;;;;;6.80;6.30;;;;;;;;;;4983712;28;25301;-59
2021/11/28 04:27:50;;;;;;;6.80;6.20;;;;;;;;;;4971199;28;24419;-59
2021/11/28 04:30:15;;;;;;;6.00;5.50;;;;;;;;;;4983230;28;24795;-59
2021/11/28 04:32:40;;;;;;;5.50;5.10;;;;;;;;;;4981606;28;24465;-59
2021/11/28 04:35:05;;;;;;;5.60;5.20;;;;;;;;;;4984074;28;24413;-59
2021/11/28 04:37:31;;;;;;;6.60;6.10;;;;;;;;;;4978597;28;24416;-59
2021/11/28 04:39:56;;;;;;;5.90;5.40;;;;;;;;;;4979793;28;24928;-59
2021/11/28 04:42:21;;;;;;;6.73;6.10;;;;;;;;;;4982541;28;24425;-59
2021/11/28 04:44:46;;;;;;;7.07;6.47;;;;;;;;;;4979656;28;24958;-59
2021/11/28 04:47:14;;;;;;;7.47;6.87;;;;;;;;;;4984547;28;24416;-60
2021/11/28 04:49:40;;;;;;;7.00;6.40;;;;;;;;;;4981246;28;24413;-59
2021/11/28 04:52:05;;;;;;;6.90;6.40;;;;;;;;;;4979988;28;24491;-60
2021/11/28 04:54:30;;;;;;;7.97;7.27;;;;;;;;;;4979025;28;24412;-60
2021/11/28 04:56:55;;;;;;;7.32;6.63;;;;;;;;;;4982912;28;24961;-60
2021/11/28 04:59:20;;;;;;;6.80;6.30;;;;;;;;;;4989468;28;24863;-59
2021/11/28 05:01:46;;;;;;;6.93;6.33;;;;;;;;;;4982568;28;24425;-60
2021/11/28 05:04:11;;;;;;;6.17;5.57;;;;;;;;;;4981233;28;25177;-59
2021/11/28 05:06:37;;;;;;;6.10;5.60;;;;;;;;;;4990782;28;24416;-59
2021/11/28 05:09:02;;;;;;;6.40;5.80;;;;;;;;;;4986819;28;24500;-59
2021/11/28 05:11:27;;;;;;;7.22;6.53;;;;;;;;;;4982811;28;24429;-60
2021/11/28 05:13:53;;;;;;;6.50;6.00;;;;;;;;;;4988605;28;24416;-59
2021/11/28 05:16:19;;;;;;;6.28;5.68;;;;;;;;;;4985833;28;24440;-59
2021/11/28 05:18:44;;;;;;;6.65;6.05;;;;;;;;;;4984609;28;24783;-59
2021/11/28 05:21:09;;;;;;;6.10;5.60;;;;;;;;;;4986642;28;24413;-59
2021/11/28 05:23:34;;;;;;;5.85;5.35;;;;;;;;;;4996251;28;24429;-59
2021/11/28 05:25:59;;;;;;;7.00;6.30;;;;;;;;;;4986153;28;25118;-59
2021/11/28 05:28:25;;;;;;;6.20;5.70;;;;;;;;;;4982381;28;24412;-60
2021/11/28 05:30:50;;;;;;;6.00;5.50;;;;;;;;;;4984567;28;24429;-60
2021/11/28 05:33:15;;;;;;;6.90;6.30;;;;;;;;;;4998391;28;24411;-59
2021/11/28 05:35:40;;;;;;;6.00;5.50;;;;;;;;;;4984078;28;24440;-60
2021/11/28 05:38:05;;;;;;;6.27;5.77;;;;;;;;;;4988372;28;24882;-60
2021/11/28 05:40:31;;;;;;;6.50;5.90;;;;;;;;;;4999820;28;24876;-59
2021/11/28 05:42:56;;;;;;;6.60;6.00;;;;;;;;;;5003294;28;24466;-60
2021/11/28 05:45:22;;;;;;;6.07;5.57;;;;;;;;;;4998422;28;24465;-60
2021/11/28 05:47:48;;;;;;;6.70;6.10;;;;;;;;;;4984376;28;24420;-60
2021/11/28 05:50:14;;;;;;;6.37;5.77;;;;;;;;;;4984451;28;24421;-60
2021/11/28 05:52:39;;;;;;;6.60;6.10;;;;;;;;;;4987719;28;24484;-60
2021/11/28 05:55:05;;;;;;;6.60;6.00;;;;;;;;;;4989991;28;24429;-60
2021/11/28 05:57:30;;;;;;;6.85;6.25;;;;;;;;;;4991423;28;24487;-60
2021/11/28 05:59:55;;;;;;;6.55;6.05;;;;;;;;;;4997840;28;24424;-60
2021/11/28 06:02:20;;;;;;;6.60;6.00;;;;;;;;;;4988570;28;25199;-60
2021/11/28 06:04:45;;;;;;;6.53;6.03;;;;;;;;;;4983916;28;24408;-61
2021/11/28 06:07:11;;;;;;;6.10;5.60;;;;;;;;;;4985301;28;24413;-60
2021/11/28 06:09:36;;;;;;;6.20;5.70;;;;;;;;;;4988865;28;24416;-60
2021/11/28 06:12:01;;;;;;;6.93;6.23;;;;;;;;;;4981898;28;24429;-60
2021/11/28 06:14:26;;;;;;;6.50;5.90;;;;;;;;;;4982043;28;24500;-60
2021/11/28 06:16:51;;;;;;;6.30;5.70;;;;;;;;;;4983004;28;24512;-60
2021/11/28 06:19:17;;;;;;;6.10;5.60;;;;;;;;;;4992536;28;24936;-60
2021/11/28 06:21:42;;;;;;;6.20;5.60;;;;;;;;;;4992742;28;24483;-60
2021/11/28 06:24:07;;;;;;;7.00;6.40;;;;;;;;;;4987001;28;24919;-60
2021/11/28 06:26:32;;;;;;;6.27;5.77;;;;;;;;;;4982777;28;24420;-60
2021/11/28 06:28:57;;;;;;;6.77;6.17;;;;;;;;;;4980972;28;24432;-60
2021/11/28 06:31:23;;;;;;;6.77;6.17;;;;;;;;;;4983562;28;24992;-60
2021/11/28 06:33:48;;;;;;;7.03;6.43;;;;;;;;;;4982153;28;24535;-60
2021/11/28 06:36:13;;;;;;;6.53;5.82;;;;;;;;;;4984522;28;24420;-60
2021/11/28 06:38:38;;;;;;;6.23;5.73;;;;;;;;;;4982600;28;25222;-59
2021/11/28 06:41:03;;;;;;;7.20;6.50;;;;;;;;;;4982890;28;24804;-60
2021/11/28 06:43:29;;;;;;;6.70;6.20;;;;;;;;;;4978866;28;24417;-59
2021/11/28 06:45:54;;;;;;;7.00;6.40;;;;;;;;;;4984270;28;25054;-59
2021/11/28 06:48:19;;;;;;;6.30;5.80;;;;;;;;;;4985359;28;24416;-60
2021/11/28 06:50:45;;;;;;;6.47;5.88;;;;;;;;;;4981899;28;25026;-60
2021/11/28 06:53:10;;;;;;;6.87;6.27;;;;;;;;;;4984267;28;24452;-61
2021/11/28 06:55:35;;;;;;;6.90;6.30;;;;;;;;;;4984505;28;24444;-61
2021/11/28 06:58:00;;;;;;;6.97;6.37;;;;;;;;;;4985811;28;24428;-60
2021/11/28 07:00:26;;;;;;;7.40;6.70;;;;;;;;;;4989239;28;24401;-60
2021/11/28 07:02:52;;;;;;;7.35;6.65;;;;;;;;;;4982017;28;24967;-61
2021/11/28 07:05:17;;;;;;;7.70;7.00;;;;;;;;;;4988096;28;24890;-60
2021/11/28 07:07:42;;;;;;;8.00;7.30;;;;;;;;;;4987538;28;24424;-61
2021/11/28 07:10:07;;;;;;;6.53;6.03;;;;;;;;;;4977303;28;24969;-60
2021/11/28 07:12:33;;;;;;;7.20;6.60;;;;;;;;;;4981088;28;24439;-62
2021/11/28 07:15:01;;;;;;;7.90;7.20;;;;;;;;;;4984811;28;24412;-61
2021/11/28 07:17:26;;;;;;;8.15;7.45;;;;;;;;;;4984949;28;24756;-59
2021/11/28 07:19:52;;;;;;;9.33;8.53;;;;;;;;;;4981598;28;24961;-60
2021/11/28 07:22:17;;;;;;;8.57;7.77;;;;;;;;;;4984425;28;24523;-60
2021/11/28 07:24:42;;;;;;;8.53;7.70;;;;;;;;;;4990751;28;24507;-60
2021/11/28 07:27:08;;;;;;;7.80;7.20;;;;;;;;;;4989055;28;24499;-61
2021/11/28 07:29:34;;;;;;;7.60;6.90;;;;;;;;;;4983093;28;24416;-60
2021/11/28 07:31:59;;;;;;;7.50;6.90;;;;;;;;;;4979042;28;24941;-61
2021/11/28 07:34:24;;;;;;;7.80;7.20;;;;;;;;;;4989729;28;24484;-60
2021/11/28 07:36:49;;;;;;;7.80;7.10;;;;;;;;;;4999026;28;24427;-60
2021/11/28 07:39:14;;;;;;;7.70;7.00;;;;;;;;;;4987765;28;24471;-61
2021/11/28 07:41:40;;;;;;;7.60;6.97;;;;;;;;;;4982428;28;25008;-61
2021/11/28 07:44:05;;;;;;;7.60;6.90;;;;;;;;;;4992429;28;25010;-61
2021/11/28 07:46:30;;;;;;;7.63;7.03;;;;;;;;;;4982822;28;24471;-60
2021/11/28 07:48:56;;;;;;;8.10;7.40;;;;;;;;;;4992061;28;24417;-60
2021/11/28 07:51:21;;;;;;;7.20;6.60;;;;;;;;;;4979809;28;24436;-61
2021/11/28 07:53:47;;;;;;;7.70;7.10;;;;;;;;;;4981533;28;24416;-60
2021/11/28 07:56:12;;;;;;;7.87;7.17;;;;;;;;;;4997092;28;25018;-61
2021/11/28 07:58:38;;;;;;;8.40;7.60;;;;;;;;;;4988651;28;25045;-60
2021/11/28 08:01:03;;;;;;;8.00;7.20;;;;;;;;;;4982044;28;24420;-60
2021/11/28 08:03:28;;;;;;;8.83;7.93;;;;;;;;;;4983479;28;24417;-61
2021/11/28 08:05:58;;;;;;;8.70;7.90;;;;;;;;;;4990280;28;25373;-60
2021/11/28 08:08:23;;;;;;;8.43;7.63;;;;;;;;;;4990317;28;25418;-61
2021/11/28 08:10:48;;;;;;;9.53;8.63;;;;;;;;;;4994964;28;24442;-59
2021/11/28 08:13:13;;;;;;;9.10;8.23;;;;;;;;;;4986332;28;24422;-60
2021/11/28 08:15:38;;;;;;;9.00;8.20;;;;;;;;;;4988722;28;25088;-59
2021/11/28 08:18:04;;;;;;;9.95;9.10;;;;;;;;;;4988320;28;24409;-59
2021/11/28 08:20:29;;;;;;;10.20;9.20;;;;;;;;;;4991568;28;24425;-59
2021/11/28 08:22:55;;;;;;;10.23;9.23;;;;;;;;;;4985595;28;24409;-60
2021/11/28 08:25:20;;;;;;;10.18;9.18;;;;;;;;;;4980397;28;24413;-59
2021/11/28 08:27:46;;;;;;;9.57;8.67;;;;;;;;;;4979450;28;24468;-59
2021/11/28 08:30:14;;;;;;;10.00;9.00;;;;;;;;;;4982043;28;24555;-60
2021/11/28 08:32:40;;;;;;;10.90;9.80;;;;;;;;;;4981020;28;24437;-60
2021/11/28 08:35:09;;;;;;;11.02;9.93;;;;;;;;;;4988403;28;24419;-61
2021/11/28 08:37:35;;;;;;;10.10;9.20;;;;;;;;;;4980704;28;24417;-60
2021/11/28 08:40:02;;;;;;;10.55;9.45;;;;;;;;;;4985994;28;24502;-60
2021/11/28 08:42:31;;;;;;;10.48;9.38;;;;;;;;;;4983165;28;24425;-61
2021/11/28 08:44:56;;;;;;;10.77;9.77;;;;;;;;;;4985037;28;24889;-60
2021/11/28 08:47:21;;;;;;;11.10;10.00;;;;;;;;;;4977874;28;25014;-59
2021/11/28 08:49:46;;;;;;;10.77;9.77;;;;;;;;;;4980085;28;24424;-59
2021/11/28 08:52:13;;;;;;;10.33;9.43;;;;;;;;;;4984299;28;24491;-59
2021/11/28 08:54:38;;;;;;;10.70;9.60;;;;;;;;;;4981950;28;24484;-60
2021/11/28 08:57:03;;;;;;;11.40;10.30;;;;;;;;;;4983446;28;24428;-60
2021/11/28 08:59:28;;;;;;;11.63;10.50;;;;;;;;;;4985790;28;24460;-60
2021/11/28 09:01:53;;;;;;;10.07;9.17;;;;;;;;;;4978590;28;25033;-62
2021/11/28 09:04:19;;;;;;;11.57;10.37;;;;;;;;;;4986065;28;24420;-62
2021/11/28 09:06:44;;;;;;;11.03;9.90;;;;;;;;;;4984715;28;24460;-60
2021/11/28 09:09:09;;;;;;;11.83;10.63;;;;;;;;;;5003669;28;24503;-60
2021/11/28 09:11:34;;;;;;;12.00;10.80;;;;;;;;;;4989715;28;24479;-60
2021/11/28 09:14:00;;;;;;;12.30;11.00;;;;;;;;;;4996436;28;24446;-60
2021/11/28 09:16:25;;;;;;;11.93;10.80;;;;;;;;;;4981761;28;25444;-60
2021/11/28 09:18:55;;;;;;;11.10;10.00;;;;;;;;;;4985609;28;24424;-61
2021/11/28 09:21:20;;;;;;;10.40;9.30;;;;;;;;;;4987207;28;24479;-60
2021/11/28 09:26:30;;;;;;;11.30;10.20;;;;;;;;;;4982182;28;24479;-60
2021/11/28 09:28:58;;;;;;;11.35;10.25;;;;;;;;;;4983528;28;24428;-61
2021/11/28 09:31:24;;;;;;;13.07;11.77;;;;;;;;;;4991088;28;24460;-61
2021/11/28 09:33:49;;;;;;;12.00;10.70;;;;;;;;;;5003199;28;24654;-61
2021/11/28 09:36:14;;;;;;;13.10;11.63;;;;;;;;;;4999716;28;24419;-60
2021/11/28 09:38:39;;;;;;;13.13;11.80;;;;;;;;;;4990428;28;24409;-60
2021/11/28 09:41:07;;;;;;;15.02;13.43;;;;;;;;;;4998926;28;24874;-60
2021/11/28 09:43:34;;;;;;;14.07;12.00;;;;;;;;;;5005743;28;24462;-60
2021/11/28 09:46:00;;;;;;;13.68;12.25;;;;;;;;;;4993486;28;25468;-60
2021/11/28 09:48:26;;;;;;;14.68;13.18;;;;;;;;;;4982424;28;24932;-60
2021/11/28 09:50:52;;;;;;;15.00;13.20;;;;;;;;;;4980306;28;24986;-60
2021/11/28 09:53:17;;;;;;;14.55;13.05;;;;;;;;;;4995138;28;24416;-60
2021/11/28 09:55:42;;;;;;;13.90;12.50;;;;;;;;;;4998930;28;24433;-60
2021/11/28 09:58:08;;;;;;;14.00;12.47;;;;;;;;;;4987393;28;24495;-60
2021/11/28 10:00:33;;;;;;;16.50;13.60;;;;;;;;;;4983740;28;24410;-60
2021/11/28 10:02:58;;;;;;;15.43;12.80;;;;;;;;;;4981082;28;24417;-60
2021/11/28 10:05:24;;;;;;;15.40;13.57;;;;;;;;;;4980294;28;24412;-60
2021/11/28 10:07:49;;;;;;;14.97;13.47;;;;;;;;;;4982429;28;24413;-62
2021/11/28 10:10:15;;;;;;;13.57;12.18;;;;;;;;;;4988229;28;24832;-62
2021/11/28 10:12:42;;;;;;;14.68;12.63;;;;;;;;;;4988425;28;24463;-60
2021/11/28 10:15:09;;;;;;;18.42;15.18;;;;;;;;;;4987218;28;24420;-62
2021/11/28 10:17:36;;;;;;;16.65;14.63;;;;;;;;;;4982272;28;24417;-62
2021/11/28 10:20:03;;;;;;;16.90;15.10;;;;;;;;;;4985288;28;24763;-62
2021/11/28 10:22:28;;;;;;;16.10;14.40;;;;;;;;;;4983750;28;26043;-62
2021/11/28 10:24:54;;;;;;;14.93;13.32;;;;;;;;;;4993733;28;24424;-62
2021/11/28 10:27:19;;;;;;;15.90;14.30;;;;;;;;;;4988076;28;24421;-62
2021/11/28 10:29:45;;;;;;;17.17;14.80;;;;;;;;;;4979630;28;24428;-62
2021/11/28 10:32:11;;;;;;;16.80;15.10;;;;;;;;;;4980238;28;24811;-62
2021/11/28 10:34:44;;;;;;;16.90;15.10;;;;;;;;;;4984502;28;25000;-62
2021/11/28 10:37:09;;;;;;;19.63;16.90;;;;;;;;;;4991945;28;24468;-62
2021/11/28 10:39:40;;;;;;;18.13;15.57;;;;;;;;;;4985924;28;24413;-62
2021/11/28 10:42:06;;;;;;;16.80;15.00;;;;;;;;;;4984666;28;24448;-61
2021/11/28 10:44:31;;;;;;;18.20;16.30;;;;;;;;;;4984229;28;24420;-61
2021/11/28 10:46:57;;;;;;;19.20;17.03;;;;;;;;;;4991404;28;24433;-61
2021/11/28 10:49:26;;;;;;;17.50;15.43;;;;;;;;;;4983154;28;24444;-61
2021/11/28 10:51:53;;;;;;;18.45;16.45;;;;;;;;;;4986274;28;24532;-61
2021/11/28 10:54:32;;;;;;;18.60;16.60;;;;;;;;;;4980137;28;24421;-61
2021/11/28 10:57:14;;;;;;;17.95;15.90;;;;;;;;;;4975738;28;24869;-60
2021/11/28 10:59:40;;;;;;;16.92;14.77;;;;;;;;;;4965580;28;24415;-61
2021/11/28 11:02:27;;;;;;;15.52;13.90;;;;;;;;;;4984093;28;24428;-60
2021/11/28 11:04:54;;;;;;;18.48;15.68;;;;;;;;;;4973550;28;24764;-60
2021/11/28 11:07:22;;;;;;;16.85;15.15;;;;;;;;;;4981216;28;24934;-60
2021/11/28 11:09:48;;;;;;;17.40;14.55;;;;;;;;;;4997741;28;24985;-61
2021/11/28 11:12:20;;;;;;;15.98;14.27;;;;;;;;;;4988579;28;24949;-61
2021/11/28 11:14:46;;;;;;;15.68;14.07;;;;;;;;;;4985037;28;24967;-60
2021/11/28 11:17:11;;;;;;;16.40;14.30;;;;;;;;;;4980834;28;24432;-61
2021/11/28 11:19:39;;;;;;;14.60;12.97;;;;;;;;;;4988061;28;24428;-61
2021/11/28 11:22:07;;;;;;;14.90;13.30;;;;;;;;;;4985664;28;24965;-61
2021/11/28 11:24:34;;;;;;;13.93;12.60;;;;;;;;;;4992045;28;24496;-60
2021/11/28 11:27:08;;;;;;;14.40;12.90;;;;;;;;;;4983299;28;24420;-61
2021/11/28 11:29:34;;;;;;;15.90;14.20;;;;;;;;;;4980466;28;24468;-61
2021/11/28 11:32:01;;;;;;;14.70;13.10;;;;;;;;;;4982507;28;24820;-61
2021/11/28 11:34:28;;;;;;;15.88;14.27;;;;;;;;;;4979981;28;24440;-61
2021/11/28 11:36:54;;;;;;;16.75;14.30;;;;;;;;;;4984158;28;24427;-61
2021/11/28 11:39:20;;;;;;;16.42;14.63;;;;;;;;;;4981614;28;24440;-61
2021/11/28 11:41:45;;;;;;;14.70;13.20;;;;;;;;;;4970716;28;24803;-61
2021/11/28 11:44:14;;;;;;;15.60;13.50;;;;;;;;;;4981115;28;24982;-61
2021/11/28 11:46:43;;;;;;;14.43;12.20;;;;;;;;;;4985822;28;24468;-61
2021/11/28 11:49:08;;;;;;;13.35;11.95;;;;;;;;;;4987106;28;24425;-61
2021/11/28 11:51:34;;;;;;;13.63;12.23;;;;;;;;;;4986882;28;24491;-61
2021/11/28 11:54:03;;;;;;;12.63;11.32;;;;;;;;;;4979811;28;24413;-61
2021/11/28 11:56:28;;;;;;;12.35;10.90;;;;;;;;;;4980644;28;25042;-61
2021/11/28 11:59:02;;;;;;;12.27;10.98;;;;;;;;;;4987167;28;24440;-60
2021/11/28 12:01:28;;;;;;;12.88;11.57;;;;;;;;;;4994852;28;24495;-60
2021/11/28 12:03:55;;;;;;;11.57;10.38;;;;;;;;;;4981354;28;25157;-60
2021/11/28 12:06:38;;;;;;;12.02;10.85;;;;;;;;;;4983939;28;24423;-60
2021/11/28 12:09:03;;;;;;;12.45;11.25;;;;;;;;;;4973807;28;24800;-60
2021/11/28 12:11:49;;;;;;;12.40;11.20;;;;;;;;;;4987388;28;25060;-60
2021/11/28 12:14:14;;;;;;;12.50;11.20;;;;;;;;;;4982880;28;24832;-60
2021/11/28 12:16:39;;;;;;;11.70;10.50;;;;;;;;;;4981268;28;24463;-61
2021/11/28 12:19:04;;;;;;;10.43;9.43;;;;;;;;;;4986915;28;24503;-60
2021/11/28 12:21:33;;;;;;;10.33;9.43;;;;;;;;;;4983404;28;24421;-61
2021/11/28 12:24:03;;;;;;;11.20;10.10;;;;;;;;;;4981886;28;24419;-61
2021/11/28 12:26:31;;;;;;;10.80;9.80;;;;;;;;;;4980181;28;24487;-61
2021/11/28 12:28:57;;;;;;;13.95;10.25;;;;;;;;;;4986275;28;24441;-61
2021/11/28 12:31:27;;;;;;;11.25;10.15;;;;;;;;;;4983157;28;24437;-61
2021/11/28 12:33:52;;;;;;;10.50;9.50;;;;;;;;;;4992266;28;24458;-61
2021/11/28 12:36:47;;;;;;;13.13;11.80;;;;;;;;;;4995299;28;24483;-61
2021/11/28 12:39:25;;;;;;;10.70;9.70;;;;;;;;;;4978601;28;25017;-61
2021/11/28 12:42:05;;;;;;;12.23;10.93;;;;;;;;;;4993730;28;24772;-61
2021/11/28 12:44:32;;;;;;;11.27;10.18;;;;;;;;;;4983065;28;24566;-61
2021/11/28 12:47:16;;;;;;;12.60;11.30;;;;;;;;;;4980710;28;24570;-61
2021/11/28 12:49:43;;;;;;;11.75;10.65;;;;;;;;;;4977899;28;24459;-61
2021/11/28 12:52:14;;;;;;;11.90;10.80;;;;;;;;;;4981935;28;24440;-61
2021/11/28 12:54:41;;;;;;;12.60;11.40;;;;;;;;;;4983002;28;24959;-63
2021/11/28 12:57:18;;;;;;;13.10;11.70;;;;;;;;;;4980335;28;24425;-63
2021/11/28 13:00:02;;;;;;;12.20;11.00;;;;;;;;;;4980987;28;24416;-63
2021/11/28 13:02:44;;;;;;;12.37;11.17;;;;;;;;;;4976888;28;24483;-63
2021/11/28 13:05:21;;;;;;;11.43;10.32;;;;;;;;;;4985797;28;24428;-62
2021/11/28 13:07:46;;;;;;;13.00;11.70;;;;;;;;;;4980140;28;24508;-63
2021/11/28 13:10:22;;;;;;;12.52;11.23;;;;;;;;;;4974551;28;24620;-62
2021/11/28 13:12:47;;;;;;;10.80;9.80;;;;;;;;;;4975945;28;24425;-63
2021/11/28 13:15:20;;;;;;;11.10;10.00;;;;;;;;;;4978523;28;24415;-62
2021/11/28 13:17:45;;;;;;;10.60;9.60;;;;;;;;;;4978644;28;24475;-62
2021/11/28 13:20:10;;;;;;;11.50;10.30;;;;;;;;;;4979604;28;24417;-61
2021/11/28 13:22:42;;;;;;;11.35;10.25;;;;;;;;;;4980276;28;24425;-60
2021/11/28 13:25:26;;;;;;;11.00;9.90;;;;;;;;;;4982266;28;24975;-60
2021/11/28 13:27:51;;;;;;;13.38;11.98;;;;;;;;;;4980392;28;24416;-63
2021/11/28 13:30:19;;;;;;;12.07;10.87;;;;;;;;;;4981675;28;24461;-63
2021/11/28 13:32:44;;;;;;;12.48;11.27;;;;;;;;;;4981328;28;25056;-63
2021/11/28 13:35:16;;;;;;;14.37;12.97;;;;;;;;;;4981544;28;24460;-62
2021/11/28 13:37:41;;;;;;;14.32;12.82;;;;;;;;;;4978481;28;24818;-62
2021/11/28 13:40:11;;;;;;;13.43;12.13;;;;;;;;;;4980828;28;24421;-63
2021/11/28 13:42:50;;;;;;;14.20;12.70;;;;;;;;;;4975528;28;24434;-63
2021/11/28 13:45:15;;;;;;;14.48;12.95;;;;;;;;;;4976767;28;24425;-62
2021/11/28 13:47:48;;;;;;;13.80;12.40;;;;;;;;;;4977575;28;24878;-62
2021/11/28 13:50:17;;;;;;;14.10;12.60;;;;;;;;;;4979221;28;24472;-62
2021/11/28 13:52:42;;;;;;;12.52;11.32;;;;;;;;;;4981727;28;24456;-62
2021/11/28 13:55:07;;;;;;;12.90;11.60;;;;;;;;;;4976798;28;24437;-65
2021/11/28 13:57:32;;;;;;;13.70;12.30;;;;;;;;;;4978842;28;24412;-61
2021/11/28 14:00:00;;;;;;;13.10;11.80;;;;;;;;;;4985868;28;24488;-60
2021/11/28 14:02:25;;;;;;;12.40;11.20;;;;;;;;;;4984094;28;24424;-61
2021/11/28 14:04:56;;;;;;;14.37;12.97;;;;;;;;;;4983562;28;24389;-60
2021/11/28 14:07:22;;;;;;;12.88;11.57;;;;;;;;;;4982930;28;24417;-60
2021/11/28 14:09:49;;;;;;;13.77;12.40;;;;;;;;;;4985495;28;25087;-60
2021/11/28 14:12:20;;;;;;;13.85;12.55;;;;;;;;;;4984856;28;24425;-61
2021/11/28 14:14:46;;;;;;;13.30;12.00;;;;;;;;;;4982862;28;24417;-61
2021/11/28 14:17:11;;;;;;;10.73;9.80;;;;;;;;;;4990604;28;24474;-61
2021/11/28 14:19:38;;;;;;;11.50;10.40;;;;;;;;;;5002674;28;24456;-60
2021/11/28 14:22:21;;;;;;;12.30;11.20;;;;;;;;;;5004721;28;24424;-61
2021/11/28 14:24:46;;;;;;;12.57;11.25;;;;;;;;;;4985664;28;24413;-60
2021/11/28 14:27:15;;;;;;;12.17;11.00;;;;;;;;;;4985642;28;24906;-60
2021/11/28 14:29:41;;;;;;;11.40;10.30;;;;;;;;;;4990713;28;24443;-60
2021/11/28 14:32:06;;;;;;;12.07;10.98;;;;;;;;;;4984368;28;24425;-61
2021/11/28 14:34:31;;;;;;;12.33;11.13;;;;;;;;;;4976705;28;24419;-61